Ibadan, Nigeria
Current Conditions -  °F | °C
As of 12:00 AM on Tuesday 21 Oct 2014 (Local Time) from DBBB Reporting Station
Thunderstorm Thunderstorm  
Wind Chill: 79°   Ceiling: Unl
Heat Index: 83°   Visibility: 6mi
Dew Point: 79°   Wind: 6mph
Humidity: 100%   Direction: 230°SW
Pressure: 29.88"   Gusts: NA
Location:  7.38°N, 3.93°E
Report Text: DBBB 202300Z 23005KT 200V260 9999 TS SCT012 FEW023CB 26/26 Q1012 BECMG NSW
Loading
Personal Weather Stations






























Interactive Weather Map
Tropical Storm Tracking
New forecast layout! Learn more

10-Day Weather Forecast

Advertisements
Track Severe Weather on mobile